sensor_id;sensor_type;location;lat;lon;timestamp;noise_LAeq;noise_LA_min;noise_LA_max;noise_LA01;noise_LA95
70740;Laerm;58330;51.888;11.052;2022-12-13T00:01:09;42.15;40.84;43.34;;
70740;Laerm;58330;51.888;11.052;2022-12-13T00:03:35;42.12;40.71;43.48;;
70740;Laerm;58330;51.888;11.052;2022-12-13T00:06:03;42.09;40.67;43.43;;
70740;Laerm;58330;51.888;11.052;2022-12-13T00:08:28;42.08;40.60;43.20;;
70740;Laerm;58330;51.888;11.052;2022-12-13T00:10:57;42.08;40.81;43.43;;
70740;Laerm;58330;51.888;11.052;2022-12-13T00:13:23;42.07;40.71;43.49;;
70740;Laerm;58330;51.888;11.052;2022-12-13T00:15:54;42.05;40.48;43.27;;
70740;Laerm;58330;51.888;11.052;2022-12-13T00:18:20;42.08;40.73;43.46;;
70740;Laerm;58330;51.888;11.052;2022-12-13T00:20:45;42.09;40.76;43.29;;
70740;Laerm;58330;51.888;11.052;2022-12-13T00:23:11;42.12;40.82;43.36;;
70740;Laerm;58330;51.888;11.052;2022-12-13T00:25:37;42.12;40.80;43.37;;
70740;Laerm;58330;51.888;11.052;2022-12-13T00:28:02;42.08;40.61;43.28;;
70740;Laerm;58330;51.888;11.052;2022-12-13T00:30:29;42.06;40.62;43.42;;
70740;Laerm;58330;51.888;11.052;2022-12-13T00:32:55;42.02;40.68;43.26;;
70740;Laerm;58330;51.888;11.052;2022-12-13T00:35:21;41.99;40.49;43.23;;
70740;Laerm;58330;51.888;11.052;2022-12-13T00:37:47;41.97;40.71;43.27;;
70740;Laerm;58330;51.888;11.052;2022-12-13T00:40:13;41.92;40.50;43.26;;
70740;Laerm;58330;51.888;11.052;2022-12-13T00:42:39;41.87;40.60;43.20;;
70740;Laerm;58330;51.888;11.052;2022-12-13T00:45:05;41.84;40.34;43.24;;
70740;Laerm;58330;51.888;11.052;2022-12-13T00:47:31;41.80;40.37;43.01;;
70740;Laerm;58330;51.888;11.052;2022-12-13T00:49:57;41.79;40.26;43.31;;
70740;Laerm;58330;51.888;11.052;2022-12-13T00:52:22;41.80;40.35;43.05;;
70740;Laerm;58330;51.888;11.052;2022-12-13T00:54:48;41.78;40.27;43.28;;
70740;Laerm;58330;51.888;11.052;2022-12-13T00:57:14;41.80;40.40;43.19;;
70740;Laerm;58330;51.888;11.052;2022-12-13T00:59:39;41.79;40.23;43.15;;
70740;Laerm;58330;51.888;11.052;2022-12-13T01:02:05;41.79;40.23;42.98;;
70740;Laerm;58330;51.888;11.052;2022-12-13T01:04:31;41.79;40.34;42.91;;
70740;Laerm;58330;51.888;11.052;2022-12-13T01:06:57;41.80;40.14;43.04;;
70740;Laerm;58330;51.888;11.052;2022-12-13T01:09:23;41.84;40.44;43.01;;
70740;Laerm;58330;51.888;11.052;2022-12-13T01:11:54;41.87;40.24;43.28;;
70740;Laerm;58330;51.888;11.052;2022-12-13T01:14:20;41.90;40.52;43.41;;
70740;Laerm;58330;51.888;11.052;2022-12-13T01:16:46;41.94;40.54;43.26;;
70740;Laerm;58330;51.888;11.052;2022-12-13T01:19:12;41.91;40.51;43.15;;
70740;Laerm;58330;51.888;11.052;2022-12-13T01:21:38;41.90;40.31;43.07;;
70740;Laerm;58330;51.888;11.052;2022-12-13T01:24:04;41.90;40.46;43.14;;
70740;Laerm;58330;51.888;11.052;2022-12-13T01:26:30;41.90;40.45;43.11;;
70740;Laerm;58330;51.888;11.052;2022-12-13T01:28:56;41.90;40.67;43.14;;
70740;Laerm;58330;51.888;11.052;2022-12-13T01:31:22;41.92;40.56;43.28;;
70740;Laerm;58330;51.888;11.052;2022-12-13T01:33:48;41.94;40.38;43.55;;
70740;Laerm;58330;51.888;11.052;2022-12-13T01:36:15;41.94;40.69;43.19;;
70740;Laerm;58330;51.888;11.052;2022-12-13T01:38:41;41.92;40.28;43.61;;
70740;Laerm;58330;51.888;11.052;2022-12-13T01:41:08;41.90;40.62;43.12;;
70740;Laerm;58330;51.888;11.052;2022-12-13T01:43:51;41.90;40.38;43.18;;
70740;Laerm;58330;51.888;11.052;2022-12-13T01:46:17;41.92;40.39;43.45;;
70740;Laerm;58330;51.888;11.052;2022-12-13T01:48:44;41.91;40.69;43.31;;
70740;Laerm;58330;51.888;11.052;2022-12-13T01:51:13;41.91;40.60;43.15;;
70740;Laerm;58330;51.888;11.052;2022-12-13T01:53:40;41.89;40.48;43.41;;
70740;Laerm;58330;51.888;11.052;2022-12-13T01:56:09;41.87;40.47;43.25;;
70740;Laerm;58330;51.888;11.052;2022-12-13T01:58:35;41.86;40.56;43.12;;
70740;Laerm;58330;51.888;11.052;2022-12-13T02:01:02;41.90;40.35;43.31;;
70740;Laerm;58330;51.888;11.052;2022-12-13T02:03:28;41.87;40.62;43.12;;
70740;Laerm;58330;51.888;11.052;2022-12-13T02:05:55;41.86;40.55;43.15;;
70740;Laerm;58330;51.888;11.052;2022-12-13T02:08:23;41.83;40.22;43.02;;
70740;Laerm;58330;51.888;11.052;2022-12-13T02:10:49;41.80;40.26;43.08;;
70740;Laerm;58330;51.888;11.052;2022-12-13T02:13:16;41.79;40.42;43.02;;
70740;Laerm;58330;51.888;11.052;2022-12-13T02:15:43;41.79;40.46;43.14;;
70740;Laerm;58330;51.888;11.052;2022-12-13T02:18:24;41.80;40.31;43.19;;
70740;Laerm;58330;51.888;11.052;2022-12-13T02:20:56;41.83;40.33;43.12;;
70740;Laerm;58330;51.888;11.052;2022-12-13T02:23:53;41.83;40.40;43.06;;
70740;Laerm;58330;51.888;11.052;2022-12-13T02:26:33;41.82;40.28;43.29;;
70740;Laerm;58330;51.888;11.052;2022-12-13T02:29:13;41.84;40.48;43.09;;
70740;Laerm;58330;51.888;11.052;2022-12-13T02:31:46;41.81;40.46;43.21;;
70740;Laerm;58330;51.888;11.052;2022-12-13T02:34:16;41.82;40.55;43.04;;
70740;Laerm;58330;51.888;11.052;2022-12-13T02:36:44;41.81;40.42;43.25;;
70740;Laerm;58330;51.888;11.052;2022-12-13T02:39:13;41.80;40.45;43.20;;
70740;Laerm;58330;51.888;11.052;2022-12-13T02:41:43;41.81;40.27;43.25;;
70740;Laerm;58330;51.888;11.052;2022-12-13T02:44:11;41.83;40.46;43.09;;
70740;Laerm;58330;51.888;11.052;2022-12-13T02:46:40;41.83;40.40;43.21;;
70740;Laerm;58330;51.888;11.052;2022-12-13T02:49:08;41.82;40.43;43.10;;
70740;Laerm;58330;51.888;11.052;2022-12-13T02:51:34;41.83;40.36;43.12;;
70740;Laerm;58330;51.888;11.052;2022-12-13T02:54:01;41.80;40.41;43.16;;
70740;Laerm;58330;51.888;11.052;2022-12-13T02:56:26;41.78;40.44;43.07;;
70740;Laerm;58330;51.888;11.052;2022-12-13T02:58:55;41.75;40.35;42.99;;
70740;Laerm;58330;51.888;11.052;2022-12-13T03:01:28;41.76;40.47;43.04;;
70740;Laerm;58330;51.888;11.052;2022-12-13T03:04:00;41.78;40.50;43.14;;
70740;Laerm;58330;51.888;11.052;2022-12-13T03:06:33;41.80;40.38;43.06;;
70740;Laerm;58330;51.888;11.052;2022-12-13T03:09:08;41.80;40.01;43.12;;
70740;Laerm;58330;51.888;11.052;2022-12-13T03:11:45;41.82;40.52;43.07;;
70740;Laerm;58330;51.888;11.052;2022-12-13T03:14:32;41.80;40.31;43.28;;
70740;Laerm;58330;51.888;11.052;2022-12-13T03:17:01;41.83;40.38;43.03;;
70740;Laerm;58330;51.888;11.052;2022-12-13T03:19:28;41.88;40.58;43.42;;
70740;Laerm;58330;51.888;11.052;2022-12-13T03:21:54;41.88;40.50;43.21;;
70740;Laerm;58330;51.888;11.052;2022-12-13T03:24:20;41.87;40.33;43.13;;
70740;Laerm;58330;51.888;11.052;2022-12-13T03:26:46;41.82;40.43;43.22;;
70740;Laerm;58330;51.888;11.052;2022-12-13T03:29:12;41.80;40.34;43.06;;
70740;Laerm;58330;51.888;11.052;2022-12-13T03:31:38;41.85;40.49;43.32;;
70740;Laerm;58330;51.888;11.052;2022-12-13T03:34:04;41.86;40.45;43.20;;
70740;Laerm;58330;51.888;11.052;2022-12-13T03:36:30;41.85;40.31;43.21;;
70740;Laerm;58330;51.888;11.052;2022-12-13T03:38:56;41.87;40.62;43.20;;
70740;Laerm;58330;51.888;11.052;2022-12-13T03:41:23;41.85;40.26;43.54;;
70740;Laerm;58330;51.888;11.052;2022-12-13T03:43:55;41.80;40.39;43.06;;
70740;Laerm;58330;51.888;11.052;2022-12-13T03:46:21;41.78;40.33;43.01;;
70740;Laerm;58330;51.888;11.052;2022-12-13T03:48:46;41.77;40.26;43.14;;
70740;Laerm;58330;51.888;11.052;2022-12-13T03:51:12;41.76;40.29;43.09;;
70740;Laerm;58330;51.888;11.052;2022-12-13T03:53:38;41.76;40.33;42.98;;
70740;Laerm;58330;51.888;11.052;2022-12-13T03:56:04;41.76;40.52;42.96;;
70740;Laerm;58330;51.888;11.052;2022-12-13T03:58:31;41.79;40.54;43.08;;
70740;Laerm;58330;51.888;11.052;2022-12-13T04:00:57;41.83;40.54;43.26;;
70740;Laerm;58330;51.888;11.052;2022-12-13T04:03:23;41.82;40.34;43.64;;
70740;Laerm;58330;51.888;11.052;2022-12-13T04:05:48;41.81;40.45;43.13;;
70740;Laerm;58330;51.888;11.052;2022-12-13T04:08:14;41.81;40.23;43.40;;
70740;Laerm;58330;51.888;11.052;2022-12-13T04:10:40;41.80;40.33;43.08;;
70740;Laerm;58330;51.888;11.052;2022-12-13T04:13:06;41.78;40.49;43.09;;
70740;Laerm;58330;51.888;11.052;2022-12-13T04:15:50;41.80;40.37;43.09;;
70740;Laerm;58330;51.888;11.052;2022-12-13T04:18:16;41.79;40.26;43.01;;
70740;Laerm;58330;51.888;11.052;2022-12-13T04:20:42;41.81;40.39;43.02;;
70740;Laerm;58330;51.888;11.052;2022-12-13T04:23:07;41.80;40.35;43.19;;
70740;Laerm;58330;51.888;11.052;2022-12-13T04:25:33;41.83;40.50;43.15;;
70740;Laerm;58330;51.888;11.052;2022-12-13T04:27:59;41.83;40.49;43.19;;
70740;Laerm;58330;51.888;11.052;2022-12-13T04:30:25;41.82;40.14;43.24;;
70740;Laerm;58330;51.888;11.052;2022-12-13T04:32:50;41.81;40.38;43.03;;
70740;Laerm;58330;51.888;11.052;2022-12-13T04:35:16;41.80;40.47;42.96;;
70740;Laerm;58330;51.888;11.052;2022-12-13T04:37:42;41.78;40.08;43.13;;
70740;Laerm;58330;51.888;11.052;2022-12-13T04:40:08;41.74;40.42;43.00;;
70740;Laerm;58330;51.888;11.052;2022-12-13T04:42:34;41.71;40.43;43.06;;
70740;Laerm;58330;51.888;11.052;2022-12-13T04:44:59;41.74;40.12;43.15;;
70740;Laerm;58330;51.888;11.052;2022-12-13T04:47:26;41.78;40.07;43.14;;
70740;Laerm;58330;51.888;11.052;2022-12-13T04:49:51;41.80;39.97;43.04;;
70740;Laerm;58330;51.888;11.052;2022-12-13T04:52:18;41.74;40.27;43.41;;
70740;Laerm;58330;51.888;11.052;2022-12-13T04:54:43;41.69;40.22;42.95;;
70740;Laerm;58330;51.888;11.052;2022-12-13T04:57:09;41.68;40.15;42.98;;
70740;Laerm;58330;51.888;11.052;2022-12-13T04:59:35;41.71;40.45;43.12;;
70740;Laerm;58330;51.888;11.052;2022-12-13T05:02:01;41.72;40.44;43.17;;
70740;Laerm;58330;51.888;11.052;2022-12-13T05:04:28;41.74;40.42;43.05;;
70740;Laerm;58330;51.888;11.052;2022-12-13T05:06:53;41.79;40.30;43.08;;
70740;Laerm;58330;51.888;11.052;2022-12-13T05:09:19;41.82;40.34;43.14;;
70740;Laerm;58330;51.888;11.052;2022-12-13T05:11:45;41.79;40.29;43.05;;
70740;Laerm;58330;51.888;11.052;2022-12-13T05:14:10;41.78;40.17;43.00;;
70740;Laerm;58330;51.888;11.052;2022-12-13T05:16:36;41.80;40.28;43.06;;
70740;Laerm;58330;51.888;11.052;2022-12-13T05:19:02;41.81;40.33;42.97;;
70740;Laerm;58330;51.888;11.052;2022-12-13T05:21:28;41.82;40.49;43.05;;
70740;Laerm;58330;51.888;11.052;2022-12-13T05:23:54;41.85;40.43;43.25;;
70740;Laerm;58330;51.888;11.052;2022-12-13T05:26:19;41.86;40.11;43.06;;
70740;Laerm;58330;51.888;11.052;2022-12-13T05:28:45;41.87;40.36;43.37;;
70740;Laerm;58330;51.888;11.052;2022-12-13T05:31:11;41.86;40.31;43.03;;
70740;Laerm;58330;51.888;11.052;2022-12-13T05:33:37;41.88;40.29;43.16;;
70740;Laerm;58330;51.888;11.052;2022-12-13T05:36:03;41.91;40.49;43.24;;
70740;Laerm;58330;51.888;11.052;2022-12-13T05:38:30;41.92;40.29;43.20;;
70740;Laerm;58330;51.888;11.052;2022-12-13T05:40:56;41.91;40.64;43.23;;
70740;Laerm;58330;51.888;11.052;2022-12-13T05:43:21;41.93;40.55;43.18;;
70740;Laerm;58330;51.888;11.052;2022-12-13T05:45:48;41.96;40.72;43.35;;
70740;Laerm;58330;51.888;11.052;2022-12-13T05:48:13;41.94;40.31;43.43;;
70740;Laerm;58330;51.888;11.052;2022-12-13T05:50:39;41.95;40.65;43.29;;
70740;Laerm;58330;51.888;11.052;2022-12-13T05:53:05;41.95;40.28;43.28;;
70740;Laerm;58330;51.888;11.052;2022-12-13T05:55:32;41.95;40.57;43.34;;
70740;Laerm;58330;51.888;11.052;2022-12-13T05:57:58;41.94;40.31;43.17;;
70740;Laerm;58330;51.888;11.052;2022-12-13T06:00:24;41.96;40.45;43.48;;
70740;Laerm;58330;51.888;11.052;2022-12-13T06:02:50;41.99;40.41;43.32;;
70740;Laerm;58330;51.888;11.052;2022-12-13T06:05:15;41.96;40.77;43.32;;
70740;Laerm;58330;51.888;11.052;2022-12-13T06:07:41;41.95;40.67;43.39;;
70740;Laerm;58330;51.888;11.052;2022-12-13T06:10:07;41.92;40.68;43.03;;
70740;Laerm;58330;51.888;11.052;2022-12-13T06:12:34;41.95;40.57;43.30;;
70740;Laerm;58330;51.888;11.052;2022-12-13T06:14:59;41.98;40.54;43.47;;
70740;Laerm;58330;51.888;11.052;2022-12-13T06:17:28;42.00;40.57;43.33;;
70740;Laerm;58330;51.888;11.052;2022-12-13T06:19:54;42.01;40.40;43.42;;
70740;Laerm;58330;51.888;11.052;2022-12-13T06:22:20;42.00;40.49;43.34;;
70740;Laerm;58330;51.888;11.052;2022-12-13T06:24:45;41.96;40.53;43.31;;
70740;Laerm;58330;51.888;11.052;2022-12-13T06:27:11;41.95;40.54;43.32;;
70740;Laerm;58330;51.888;11.052;2022-12-13T06:29:37;41.93;40.43;43.33;;
70740;Laerm;58330;51.888;11.052;2022-12-13T06:32:03;41.93;40.48;43.28;;
70740;Laerm;58330;51.888;11.052;2022-12-13T06:34:31;41.88;40.29;43.42;;
70740;Laerm;58330;51.888;11.052;2022-12-13T06:37:00;41.87;40.49;43.17;;
70740;Laerm;58330;51.888;11.052;2022-12-13T06:39:26;41.88;40.55;43.36;;
70740;Laerm;58330;51.888;11.052;2022-12-13T06:41:51;41.90;40.62;43.28;;
70740;Laerm;58330;51.888;11.052;2022-12-13T06:44:17;41.91;40.30;43.16;;
70740;Laerm;58330;51.888;11.052;2022-12-13T06:46:44;41.92;40.55;43.06;;
70740;Laerm;58330;51.888;11.052;2022-12-13T06:49:10;41.91;40.53;43.30;;
70740;Laerm;58330;51.888;11.052;2022-12-13T06:51:35;41.92;40.35;43.31;;
70740;Laerm;58330;51.888;11.052;2022-12-13T06:54:01;41.94;40.20;43.24;;
70740;Laerm;58330;51.888;11.052;2022-12-13T06:56:27;41.94;40.51;43.53;;
70740;Laerm;58330;51.888;11.052;2022-12-13T06:58:54;41.98;40.58;43.30;;
70740;Laerm;58330;51.888;11.052;2022-12-13T07:01:19;41.98;40.46;43.24;;
70740;Laerm;58330;51.888;11.052;2022-12-13T07:03:46;41.96;40.60;43.31;;
70740;Laerm;58330;51.888;11.052;2022-12-13T07:06:12;41.97;40.55;43.24;;
70740;Laerm;58330;51.888;11.052;2022-12-13T07:08:39;41.97;40.48;43.31;;
70740;Laerm;58330;51.888;11.052;2022-12-13T07:11:04;41.94;40.36;43.30;;
70740;Laerm;58330;51.888;11.052;2022-12-13T07:13:30;41.99;40.59;43.29;;
70740;Laerm;58330;51.888;11.052;2022-12-13T07:15:58;42.01;40.41;43.31;;
70740;Laerm;58330;51.888;11.052;2022-12-13T07:18:24;42.02;40.69;43.97;;
70740;Laerm;58330;51.888;11.052;2022-12-13T07:20:50;42.01;40.44;43.51;;
70740;Laerm;58330;51.888;11.052;2022-12-13T07:23:16;41.99;40.67;43.44;;
70740;Laerm;58330;51.888;11.052;2022-12-13T07:25:49;42.00;40.59;43.21;;
70740;Laerm;58330;51.888;11.052;2022-12-13T07:28:15;42.03;40.74;43.36;;
70740;Laerm;58330;51.888;11.052;2022-12-13T07:30:40;42.06;40.60;43.48;;
70740;Laerm;58330;51.888;11.052;2022-12-13T07:33:06;42.12;40.63;44.01;;
70740;Laerm;58330;51.888;11.052;2022-12-13T07:35:32;42.18;40.69;43.73;;
70740;Laerm;58330;51.888;11.052;2022-12-13T07:37:58;42.29;40.70;43.52;;
70740;Laerm;58330;51.888;11.052;2022-12-13T07:40:24;42.31;40.48;43.65;;
70740;Laerm;58330;51.888;11.052;2022-12-13T07:42:50;42.25;40.74;43.59;;
70740;Laerm;58330;51.888;11.052;2022-12-13T07:45:16;42.19;40.89;43.39;;
70740;Laerm;58330;51.888;11.052;2022-12-13T07:47:42;42.20;40.62;43.39;;
70740;Laerm;58330;51.888;11.052;2022-12-13T07:50:07;42.31;40.66;43.64;;
70740;Laerm;58330;51.888;11.052;2022-12-13T07:52:33;42.29;40.89;43.46;;
70740;Laerm;58330;51.888;11.052;2022-12-13T07:55:00;42.29;40.74;43.56;;
70740;Laerm;58330;51.888;11.052;2022-12-13T07:57:26;42.32;40.90;43.69;;
70740;Laerm;58330;51.888;11.052;2022-12-13T07:59:52;42.43;40.69;43.74;;
70740;Laerm;58330;51.888;11.052;2022-12-13T08:02:18;42.66;41.24;44.04;;
70740;Laerm;58330;51.888;11.052;2022-12-13T08:04:43;42.60;41.38;43.70;;
70740;Laerm;58330;51.888;11.052;2022-12-13T08:07:09;42.52;41.04;43.91;;
70740;Laerm;58330;51.888;11.052;2022-12-13T08:09:35;42.49;41.12;43.74;;
70740;Laerm;58330;51.888;11.052;2022-12-13T08:12:01;42.53;41.23;43.77;;
70740;Laerm;58330;51.888;11.052;2022-12-13T08:14:27;42.51;41.18;43.67;;
70740;Laerm;58330;51.888;11.052;2022-12-13T08:16:53;42.34;40.79;43.59;;
70740;Laerm;58330;51.888;11.052;2022-12-13T08:19:19;42.18;40.75;43.43;;
70740;Laerm;58330;51.888;11.052;2022-12-13T08:21:45;42.13;40.66;43.71;;
70740;Laerm;58330;51.888;11.052;2022-12-13T08:24:10;42.53;41.29;43.97;;
70740;Laerm;58330;51.888;11.052;2022-12-13T08:26:36;47.08;41.57;81.26;;
70740;Laerm;58330;51.888;11.052;2022-12-13T08:29:03;42.65;41.02;43.89;;
70740;Laerm;58330;51.888;11.052;2022-12-13T08:31:29;42.41;41.16;43.70;;
70740;Laerm;58330;51.888;11.052;2022-12-13T08:33:55;42.22;40.93;43.64;;
70740;Laerm;58330;51.888;11.052;2022-12-13T08:36:20;42.12;40.84;43.46;;
70740;Laerm;58330;51.888;11.052;2022-12-13T08:38:49;41.90;40.40;43.26;;
70740;Laerm;58330;51.888;11.052;2022-12-13T08:41:17;41.07;38.99;66.98;;
70740;Laerm;58330;51.888;11.052;2022-12-13T08:43:42;40.12;38.38;41.55;;
70740;Laerm;58330;51.888;11.052;2022-12-13T08:46:09;40.42;38.51;42.72;;
70740;Laerm;58330;51.888;11.052;2022-12-13T08:48:35;40.16;38.59;41.84;;
70740;Laerm;58330;51.888;11.052;2022-12-13T08:51:00;40.38;38.63;42.46;;
70740;Laerm;58330;51.888;11.052;2022-12-13T08:53:26;39.93;37.84;45.47;;
70740;Laerm;58330;51.888;11.052;2022-12-13T08:55:52;39.19;37.08;45.47;;
70740;Laerm;58330;51.888;11.052;2022-12-13T08:58:18;38.67;36.50;44.62;;
70740;Laerm;58330;51.888;11.052;2022-12-13T09:00:44;39.54;37.33;45.09;;
70740;Laerm;58330;51.888;11.052;2022-12-13T09:03:10;39.51;37.98;41.00;;
70740;Laerm;58330;51.888;11.052;2022-12-13T09:05:37;40.30;37.83;43.18;;
70740;Laerm;58330;51.888;11.052;2022-12-13T09:08:02;40.66;38.71;42.51;;
70740;Laerm;58330;51.888;11.052;2022-12-13T09:10:28;40.05;38.27;41.67;;
70740;Laerm;58330;51.888;11.052;2022-12-13T09:12:54;39.46;37.48;43.36;;
70740;Laerm;58330;51.888;11.052;2022-12-13T09:15:21;39.79;37.60;43.48;;
70740;Laerm;58330;51.888;11.052;2022-12-13T09:17:47;40.06;38.09;44.92;;
70740;Laerm;58330;51.888;11.052;2022-12-13T09:20:13;40.47;38.54;44.52;;
70740;Laerm;58330;51.888;11.052;2022-12-13T09:22:42;40.62;38.86;43.35;;
70740;Laerm;58330;51.888;11.052;2022-12-13T09:25:10;39.99;38.16;41.38;;
70740;Laerm;58330;51.888;11.052;2022-12-13T09:27:35;40.01;38.11;43.24;;
70740;Laerm;58330;51.888;11.052;2022-12-13T09:30:01;39.57;37.37;41.65;;
70740;Laerm;58330;51.888;11.052;2022-12-13T09:32:27;39.32;36.44;48.47;;
70740;Laerm;58330;51.888;11.052;2022-12-13T09:34:53;37.92;35.68;42.58;;
70740;Laerm;58330;51.888;11.052;2022-12-13T09:37:19;37.93;35.59;43.32;;
70740;Laerm;58330;51.888;11.052;2022-12-13T09:39:45;38.33;36.12;42.34;;
70740;Laerm;58330;51.888;11.052;2022-12-13T09:42:14;39.06;35.62;48.81;;
70740;Laerm;58330;51.888;11.052;2022-12-13T09:44:44;37.54;34.84;43.70;;
70740;Laerm;58330;51.888;11.052;2022-12-13T09:47:14;39.35;34.60;49.01;;
70740;Laerm;58330;51.888;11.052;2022-12-13T09:49:46;38.59;35.01;49.66;;
70740;Laerm;58330;51.888;11.052;2022-12-13T09:52:13;38.06;34.93;45.11;;
70740;Laerm;58330;51.888;11.052;2022-12-13T09:54:40;40.44;34.53;51.47;;
70740;Laerm;58330;51.888;11.052;2022-12-13T09:57:08;37.37;34.98;43.68;;
70740;Laerm;58330;51.888;11.052;2022-12-13T09:59:39;38.32;34.57;47.59;;
70740;Laerm;58330;51.888;11.052;2022-12-13T10:02:11;37.64;34.21;45.03;;
70740;Laerm;58330;51.888;11.052;2022-12-13T10:04:39;37.63;33.98;50.34;;
70740;Laerm;58330;51.888;11.052;2022-12-13T10:07:06;38.78;34.01;48.87;;
70740;Laerm;58330;51.888;11.052;2022-12-13T10:09:35;40.04;34.14;52.79;;
70740;Laerm;58330;51.888;11.052;2022-12-13T10:12:02;38.10;34.15;53.51;;
70740;Laerm;58330;51.888;11.052;2022-12-13T10:14:31;39.41;33.47;55.24;;
70740;Laerm;58330;51.888;11.052;2022-12-13T10:17:04;40.60;34.39;54.02;;
70740;Laerm;58330;51.888;11.052;2022-12-13T10:19:32;37.83;33.89;48.65;;
70740;Laerm;58330;51.888;11.052;2022-12-13T10:21:58;39.85;33.88;51.79;;
70740;Laerm;58330;51.888;11.052;2022-12-13T10:24:26;38.76;33.90;50.77;;
70740;Laerm;58330;51.888;11.052;2022-12-13T10:26:55;37.42;34.51;45.66;;
70740;Laerm;58330;51.888;11.052;2022-12-13T10:29:21;39.48;34.53;51.35;;
70740;Laerm;58330;51.888;11.052;2022-12-13T10:31:51;38.73;33.83;51.99;;
70740;Laerm;58330;51.888;11.052;2022-12-13T10:34:21;38.28;34.14;47.76;;
70740;Laerm;58330;51.888;11.052;2022-12-13T10:36:47;36.66;34.06;46.75;;
70740;Laerm;58330;51.888;11.052;2022-12-13T10:39:15;41.26;33.55;51.81;;
70740;Laerm;58330;51.888;11.052;2022-12-13T10:41:42;38.26;33.38;51.13;;
70740;Laerm;58330;51.888;11.052;2022-12-13T10:44:13;40.06;34.19;49.96;;
70740;Laerm;58330;51.888;11.052;2022-12-13T10:46:42;37.03;34.32;48.98;;
70740;Laerm;58330;51.888;11.052;2022-12-13T10:49:14;40.58;34.33;55.05;;
70740;Laerm;58330;51.888;11.052;2022-12-13T10:51:41;39.61;34.80;48.27;;
70740;Laerm;58330;51.888;11.052;2022-12-13T10:54:10;37.67;35.21;42.98;;
70740;Laerm;58330;51.888;11.052;2022-12-13T10:56:41;38.32;35.94;48.99;;
70740;Laerm;58330;51.888;11.052;2022-12-13T10:59:10;38.72;36.65;45.49;;
70740;Laerm;58330;51.888;11.052;2022-12-13T11:01:36;39.81;37.11;47.52;;
70740;Laerm;58330;51.888;11.052;2022-12-13T11:04:03;39.05;37.07;45.75;;
70740;Laerm;58330;51.888;11.052;2022-12-13T11:06:39;39.42;37.25;48.93;;
70740;Laerm;58330;51.888;11.052;2022-12-13T11:09:12;39.57;37.21;46.59;;
70740;Laerm;58330;51.888;11.052;2022-12-13T11:11:38;39.01;37.38;41.07;;
70740;Laerm;58330;51.888;11.052;2022-12-13T11:14:04;40.40;37.50;46.57;;
70740;Laerm;58330;51.888;11.052;2022-12-13T11:16:30;39.47;37.56;46.07;;
70740;Laerm;58330;51.888;11.052;2022-12-13T11:18:57;39.76;38.17;43.34;;
70740;Laerm;58330;51.888;11.052;2022-12-13T11:21:25;39.50;37.91;41.18;;
70740;Laerm;58330;51.888;11.052;2022-12-13T11:23:52;39.99;37.88;48.05;;
70740;Laerm;58330;51.888;11.052;2022-12-13T11:26:20;39.61;37.92;41.37;;
70740;Laerm;58330;51.888;11.052;2022-12-13T11:28:52;40.15;37.98;43.64;;
70740;Laerm;58330;51.888;11.052;2022-12-13T11:31:23;40.00;37.79;44.51;;
70740;Laerm;58330;51.888;11.052;2022-12-13T11:33:53;40.26;38.15;45.47;;
70740;Laerm;58330;51.888;11.052;2022-12-13T11:36:26;39.71;37.63;41.53;;
70740;Laerm;58330;51.888;11.052;2022-12-13T11:39:00;39.97;38.24;46.31;;
70740;Laerm;58330;51.888;11.052;2022-12-13T11:41:28;39.91;38.07;45.87;;
70740;Laerm;58330;51.888;11.052;2022-12-13T11:43:57;40.05;37.54;46.04;;
70740;Laerm;58330;51.888;11.052;2022-12-13T11:46:27;39.78;37.94;48.97;;
70740;Laerm;58330;51.888;11.052;2022-12-13T11:48:57;39.57;37.70;44.71;;
70740;Laerm;58330;51.888;11.052;2022-12-13T11:51:26;40.16;37.60;45.96;;
70740;Laerm;58330;51.888;11.052;2022-12-13T11:53:55;40.50;37.40;64.14;;
70740;Laerm;58330;51.888;11.052;2022-12-13T11:56:24;40.87;37.71;64.01;;
70740;Laerm;58330;51.888;11.052;2022-12-13T11:58:57;39.90;37.52;60.46;;
70740;Laerm;58330;51.888;11.052;2022-12-13T12:01:28;39.91;37.56;58.44;;
70740;Laerm;58330;51.888;11.052;2022-12-13T12:03:56;39.82;37.65;46.97;;
70740;Laerm;58330;51.888;11.052;2022-12-13T12:06:25;39.64;37.69;45.09;;
70740;Laerm;58330;51.888;11.052;2022-12-13T12:08:56;39.62;37.76;46.99;;
70740;Laerm;58330;51.888;11.052;2022-12-13T12:11:25;39.63;37.63;47.11;;
70740;Laerm;58330;51.888;11.052;2022-12-13T12:13:52;39.42;37.70;42.65;;
70740;Laerm;58330;51.888;11.052;2022-12-13T12:16:22;40.38;37.78;49.09;;
70740;Laerm;58330;51.888;11.052;2022-12-13T12:18:49;39.65;37.89;43.90;;
70740;Laerm;58330;51.888;11.052;2022-12-13T12:21:19;40.23;38.17;49.08;;
70740;Laerm;58330;51.888;11.052;2022-12-13T12:23:53;40.04;38.21;44.11;;
70740;Laerm;58330;51.888;11.052;2022-12-13T12:26:25;40.25;38.07;50.90;;
70740;Laerm;58330;51.888;11.052;2022-12-13T12:28:59;40.00;38.34;41.78;;
70740;Laerm;58330;51.888;11.052;2022-12-13T12:31:30;40.22;38.27;43.91;;
70740;Laerm;58330;51.888;11.052;2022-12-13T12:34:02;41.68;38.43;64.45;;
70740;Laerm;58330;51.888;11.052;2022-12-13T12:36:36;40.40;39.00;48.38;;
70740;Laerm;58330;51.888;11.052;2022-12-13T12:39:22;40.88;38.57;45.24;;
70740;Laerm;58330;51.888;11.052;2022-12-13T12:41:53;40.85;39.25;47.71;;
70740;Laerm;58330;51.888;11.052;2022-12-13T12:44:25;41.34;39.24;56.06;;
70740;Laerm;58330;51.888;11.052;2022-12-13T12:46:57;40.72;38.71;44.86;;
70740;Laerm;58330;51.888;11.052;2022-12-13T12:52:12;40.71;39.16;45.04;;
70740;Laerm;58330;51.888;11.052;2022-12-13T12:54:43;40.93;39.19;45.71;;
70740;Laerm;58330;51.888;11.052;2022-12-13T12:57:18;40.73;39.07;46.64;;
70740;Laerm;58330;51.888;11.052;2022-12-13T12:59:49;40.75;38.85;44.94;;
70740;Laerm;58330;51.888;11.052;2022-12-13T13:02:20;40.79;38.93;45.57;;
70740;Laerm;58330;51.888;11.052;2022-12-13T13:04:49;40.73;39.19;45.32;;
70740;Laerm;58330;51.888;11.052;2022-12-13T13:07:19;40.69;39.04;43.41;;
70740;Laerm;58330;51.888;11.052;2022-12-13T13:09:45;40.69;39.15;44.82;;
70740;Laerm;58330;51.888;11.052;2022-12-13T13:12:11;40.80;38.95;46.74;;
70740;Laerm;58330;51.888;11.052;2022-12-13T13:14:38;40.85;39.30;44.69;;
70740;Laerm;58330;51.888;11.052;2022-12-13T13:19:48;40.51;39.00;42.14;;
70740;Laerm;58330;51.888;11.052;2022-12-13T13:22:27;40.97;38.81;50.27;;
70740;Laerm;58330;51.888;11.052;2022-12-13T13:24:58;40.52;38.89;43.05;;
70740;Laerm;58330;51.888;11.052;2022-12-13T13:27:26;40.55;39.05;45.97;;
70740;Laerm;58330;51.888;11.052;2022-12-13T13:29:54;40.47;38.69;44.74;;
70740;Laerm;58330;51.888;11.052;2022-12-13T13:32:29;40.37;38.76;44.71;;
70740;Laerm;58330;51.888;11.052;2022-12-13T13:37:45;40.53;38.91;45.31;;
70740;Laerm;58330;51.888;11.052;2022-12-13T13:40:28;40.52;38.55;43.83;;
70740;Laerm;58330;51.888;11.052;2022-12-13T13:43:01;40.49;38.64;45.13;;